Impacts TAF Board
For situational awareness. Not to be used for flight planning purposes.
IDs:

KPIT - Pittsburgh Intl, PA, US

Issued at 1120 UTC 05 Apr 2020
Updated at 1426 UTC 05 Apr 2020
Potential Impact None Slight Moderate High
Time1351Z 05/15Z 05/16Z 05/17Z 05/18Z 05/19Z 05/20Z 05/21Z 05/22Z 05/23Z 06/00Z 06/01Z 06/02Z 06/03Z>>
Type OBS PRVL PRVL PRVL PRVL PRVL PRVL PRVL PRVL PRVL PRVL PRVL PRVL PRVL
VIS 10 >6 >6 >6 >6 >6 >6 >6 >6 >6 >6 >6 >6 >6
CIG -- 35 35 35 35 35 35 35 -- -- -- -- -- --
Cover FEW BKN BKN BKN BKN BKN BKN BKN SCT SCT SCT SCT SCT SCT
FltCat VFR VFR VFR VFR VFR VFR VFR VFR VFR VFR VFR VFR VFR VFR
WX -- VCSH VCSH VCSH VCSH VCSH VCSH VCSH -- -- -- -- -- --
WDir 280 300 300 300 300 300 300 300 320 320 320 320 320 320
WSpd 4 6 6 6 6 6 6 6 5 5 5 5 5 5
WGst -- -- -- -- -- -- -- -- -- -- -- -- -- --
Raw TAF
KPIT 051120Z 0512/0618 VRB03KT P6SM OVC100
  FM051500 30006KT P6SM VCSH BKN035
  FM052200 32005KT P6SM SCT035
  FM060900 35003KT P6SM SCT250


Raw METAR
KPIT 051351Z 28004KT 10SM FEW055 FEW250 13/06 A3004 RMK AO2 SLP179 T01330056
KPIT 051251Z 00000KT 10SM SCT060 SCT250 10/04 A3004 RMK AO2 SLP180 T01000044
KPIT 051151Z 00000KT 10SM SCT090 BKN250 08/04 A3003 RMK AO2 SLP178 T00830044 10094 20072 53010

METAR Board
Radar Display
Forecast Discussion
For situational awareness. Not to be used for flight planning purposes.